sensor_id;sensor_type;location;lat;lon;timestamp;pressure;altitude;pressure_sealevel;temperature;humidity
11936;BME280;6027;48.576;9.180;2023-04-26T00:00:21;96906.31;;;6.90;100.00
11936;BME280;6027;48.576;9.180;2023-04-26T00:02:47;96905.06;;;6.76;100.00
11936;BME280;6027;48.576;9.180;2023-04-26T00:05:13;96900.34;;;6.80;100.00
11936;BME280;6027;48.576;9.180;2023-04-26T00:07:40;96896.81;;;6.63;100.00
11936;BME280;6027;48.576;9.180;2023-04-26T00:10:07;96901.63;;;6.76;100.00
11936;BME280;6027;48.576;9.180;2023-04-26T00:12:33;96898.22;;;6.83;100.00
11936;BME280;6027;48.576;9.180;2023-04-26T00:15:00;96892.78;;;6.85;100.00
11936;BME280;6027;48.576;9.180;2023-04-26T00:17:25;96904.81;;;6.87;100.00
11936;BME280;6027;48.576;9.180;2023-04-26T00:19:51;96895.63;;;6.91;100.00
11936;BME280;6027;48.576;9.180;2023-04-26T00:22:16;96891.81;;;6.86;100.00
11936;BME280;6027;48.576;9.180;2023-04-26T00:24:42;96896.09;;;6.87;100.00
11936;BME280;6027;48.576;9.180;2023-04-26T00:27:07;96893.94;;;6.82;100.00
11936;BME280;6027;48.576;9.180;2023-04-26T00:29:37;96897.19;;;6.76;100.00
11936;BME280;6027;48.576;9.180;2023-04-26T00:32:03;96897.69;;;6.80;100.00
11936;BME280;6027;48.576;9.180;2023-04-26T00:34:35;96887.47;;;6.69;100.00
11936;BME280;6027;48.576;9.180;2023-04-26T00:37:02;96898.53;;;6.80;100.00
11936;BME280;6027;48.576;9.180;2023-04-26T00:39:28;96894.41;;;6.78;100.00
11936;BME280;6027;48.576;9.180;2023-04-26T00:41:54;96887.63;;;6.75;100.00
11936;BME280;6027;48.576;9.180;2023-04-26T00:44:20;96888.81;;;6.73;100.00
11936;BME280;6027;48.576;9.180;2023-04-26T00:46:45;96888.97;;;6.71;100.00
11936;BME280;6027;48.576;9.180;2023-04-26T00:49:15;96892.91;;;6.75;100.00
11936;BME280;6027;48.576;9.180;2023-04-26T00:51:42;96889.97;;;6.78;100.00
11936;BME280;6027;48.576;9.180;2023-04-26T00:54:08;96895.53;;;6.75;100.00
11936;BME280;6027;48.576;9.180;2023-04-26T00:56:36;96892.88;;;6.67;100.00
11936;BME280;6027;48.576;9.180;2023-04-26T00:59:02;96891.53;;;6.63;100.00
11936;BME280;6027;48.576;9.180;2023-04-26T01:01:28;96889.38;;;6.58;100.00
11936;BME280;6027;48.576;9.180;2023-04-26T01:03:54;96901.09;;;6.64;100.00
11936;BME280;6027;48.576;9.180;2023-04-26T01:06:19;96899.91;;;6.58;100.00
11936;BME280;6027;48.576;9.180;2023-04-26T01:08:45;96900.22;;;6.55;100.00
11936;BME280;6027;48.576;9.180;2023-04-26T01:11:11;96900.03;;;6.49;100.00
11936;BME280;6027;48.576;9.180;2023-04-26T01:13:37;96896.75;;;6.55;100.00
11936;BME280;6027;48.576;9.180;2023-04-26T01:16:03;96895.94;;;6.54;100.00
11936;BME280;6027;48.576;9.180;2023-04-26T01:18:29;96900.22;;;6.55;100.00
11936;BME280;6027;48.576;9.180;2023-04-26T01:20:54;96903.13;;;6.44;100.00
11936;BME280;6027;48.576;9.180;2023-04-26T01:23:21;96907.25;;;6.47;100.00
11936;BME280;6027;48.576;9.180;2023-04-26T01:25:47;96905.59;;;6.46;100.00
11936;BME280;6027;48.576;9.180;2023-04-26T01:28:12;96899.66;;;6.44;100.00
11936;BME280;6027;48.576;9.180;2023-04-26T01:30:38;96893.78;;;6.50;100.00
11936;BME280;6027;48.576;9.180;2023-04-26T01:33:03;96898.16;;;6.41;100.00
11936;BME280;6027;48.576;9.180;2023-04-26T01:35:29;96898.47;;;6.38;100.00
11936;BME280;6027;48.576;9.180;2023-04-26T01:37:54;96900.25;;;6.30;100.00
11936;BME280;6027;48.576;9.180;2023-04-26T01:40:19;96904.16;;;6.26;100.00
11936;BME280;6027;48.576;9.180;2023-04-26T01:42:45;96904.59;;;6.21;100.00
11936;BME280;6027;48.576;9.180;2023-04-26T01:45:10;96909.75;;;6.05;100.00
11936;BME280;6027;48.576;9.180;2023-04-26T01:47:36;96895.94;;;6.03;100.00
11936;BME280;6027;48.576;9.180;2023-04-26T01:50:01;96907.03;;;6.14;100.00
11936;BME280;6027;48.576;9.180;2023-04-26T01:52:27;96907.53;;;6.18;100.00
11936;BME280;6027;48.576;9.180;2023-04-26T01:54:52;96891.28;;;6.14;100.00
11936;BME280;6027;48.576;9.180;2023-04-26T01:57:18;96895.75;;;6.22;100.00
11936;BME280;6027;48.576;9.180;2023-04-26T01:59:43;96888.38;;;6.26;100.00
11936;BME280;6027;48.576;9.180;2023-04-26T02:02:09;96890.03;;;6.27;100.00
11936;BME280;6027;48.576;9.180;2023-04-26T02:04:34;96890.03;;;6.27;100.00
11936;BME280;6027;48.576;9.180;2023-04-26T02:07:00;96882.13;;;6.27;100.00
11936;BME280;6027;48.576;9.180;2023-04-26T02:09:26;96882.06;;;6.18;100.00
11936;BME280;6027;48.576;9.180;2023-04-26T02:11:51;96883.69;;;6.11;100.00
11936;BME280;6027;48.576;9.180;2023-04-26T02:14:16;96886.78;;;6.07;100.00
11936;BME280;6027;48.576;9.180;2023-04-26T02:16:42;96893.22;;;6.12;100.00
11936;BME280;6027;48.576;9.180;2023-04-26T02:19:07;96894.50;;;6.08;100.00
11936;BME280;6027;48.576;9.180;2023-04-26T02:21:54;96892.25;;;5.78;100.00
11936;BME280;6027;48.576;9.180;2023-04-26T02:24:22;96882.91;;;5.75;100.00
11936;BME280;6027;48.576;9.180;2023-04-26T02:26:48;96881.41;;;5.73;100.00
11936;BME280;6027;48.576;9.180;2023-04-26T02:29:14;96884.47;;;5.68;100.00
11936;BME280;6027;48.576;9.180;2023-04-26T02:31:39;96879.22;;;5.68;100.00
11936;BME280;6027;48.576;9.180;2023-04-26T02:34:05;96872.69;;;5.72;100.00
11936;BME280;6027;48.576;9.180;2023-04-26T02:36:30;96865.78;;;5.71;100.00
11936;BME280;6027;48.576;9.180;2023-04-26T02:38:57;96878.47;;;5.76;100.00
11936;BME280;6027;48.576;9.180;2023-04-26T02:41:23;96882.81;;;5.67;100.00
11936;BME280;6027;48.576;9.180;2023-04-26T02:43:49;96899.63;;;5.39;100.00
11936;BME280;6027;48.576;9.180;2023-04-26T02:46:14;96896.81;;;5.05;100.00
11936;BME280;6027;48.576;9.180;2023-04-26T02:48:40;96898.28;;;4.90;100.00
11936;BME280;6027;48.576;9.180;2023-04-26T02:51:05;96906.66;;;4.75;100.00
11936;BME280;6027;48.576;9.180;2023-04-26T02:53:31;96906.91;;;4.45;100.00
11936;BME280;6027;48.576;9.180;2023-04-26T02:55:56;96910.38;;;4.36;100.00
11936;BME280;6027;48.576;9.180;2023-04-26T02:58:22;96916.47;;;4.36;100.00
11936;BME280;6027;48.576;9.180;2023-04-26T03:00:47;96910.47;;;4.54;100.00
11936;BME280;6027;48.576;9.180;2023-04-26T03:03:13;96911.25;;;4.64;100.00
11936;BME280;6027;48.576;9.180;2023-04-26T03:05:58;96915.78;;;4.71;100.00
11936;BME280;6027;48.576;9.180;2023-04-26T03:08:24;96908.03;;;4.70;100.00
11936;BME280;6027;48.576;9.180;2023-04-26T03:11:09;96911.75;;;4.77;100.00
11936;BME280;6027;48.576;9.180;2023-04-26T03:13:55;96901.06;;;4.88;100.00
11936;BME280;6027;48.576;9.180;2023-04-26T03:16:40;96906.00;;;4.91;100.00
11936;BME280;6027;48.576;9.180;2023-04-26T03:19:26;96899.06;;;5.00;100.00
11936;BME280;6027;48.576;9.180;2023-04-26T03:22:12;96897.78;;;5.04;100.00
11936;BME280;6027;48.576;9.180;2023-04-26T03:25:00;96891.84;;;5.02;100.00
11936;BME280;6027;48.576;9.180;2023-04-26T03:27:25;96896.28;;;5.01;100.00
11936;BME280;6027;48.576;9.180;2023-04-26T03:29:51;96901.84;;;4.98;100.00
11936;BME280;6027;48.576;9.180;2023-04-26T03:32:16;96900.56;;;4.75;100.00
11936;BME280;6027;48.576;9.180;2023-04-26T03:34:42;96897.81;;;4.76;100.00
11936;BME280;6027;48.576;9.180;2023-04-26T03:37:07;96893.63;;;4.83;100.00
11936;BME280;6027;48.576;9.180;2023-04-26T03:39:33;96892.28;;;4.79;100.00
11936;BME280;6027;48.576;9.180;2023-04-26T03:41:58;96896.19;;;4.66;100.00
11936;BME280;6027;48.576;9.180;2023-04-26T03:44:24;96898.94;;;4.27;100.00
11936;BME280;6027;48.576;9.180;2023-04-26T03:46:49;96893.00;;;4.35;100.00
11936;BME280;6027;48.576;9.180;2023-04-26T03:49:15;96895.50;;;4.36;100.00
11936;BME280;6027;48.576;9.180;2023-04-26T03:51:40;96881.81;;;4.42;100.00
11936;BME280;6027;48.576;9.180;2023-04-26T03:54:06;96887.84;;;4.53;100.00
11936;BME280;6027;48.576;9.180;2023-04-26T03:56:31;96890.19;;;4.46;100.00
11936;BME280;6027;48.576;9.180;2023-04-26T03:58:57;96890.41;;;4.25;100.00
11936;BME280;6027;48.576;9.180;2023-04-26T04:01:22;96893.56;;;4.29;100.00
11936;BME280;6027;48.576;9.180;2023-04-26T04:03:48;96896.31;;;4.37;100.00
11936;BME280;6027;48.576;9.180;2023-04-26T04:06:13;96897.84;;;4.39;100.00
11936;BME280;6027;48.576;9.180;2023-04-26T04:08:38;96894.53;;;4.37;100.00
11936;BME280;6027;48.576;9.180;2023-04-26T04:11:04;96894.38;;;4.39;100.00
11936;BME280;6027;48.576;9.180;2023-04-26T04:13:30;96898.81;;;4.29;100.00
11936;BME280;6027;48.576;9.180;2023-04-26T04:15:55;96901.84;;;4.24;100.00
11936;BME280;6027;48.576;9.180;2023-04-26T04:18:21;96901.88;;;4.14;100.00
11936;BME280;6027;48.576;9.180;2023-04-26T04:20:47;96897.44;;;4.25;100.00
11936;BME280;6027;48.576;9.180;2023-04-26T04:23:12;96897.44;;;4.34;100.00
11936;BME280;6027;48.576;9.180;2023-04-26T04:25:37;96895.53;;;4.17;100.00
11936;BME280;6027;48.576;9.180;2023-04-26T04:28:03;96896.94;;;4.11;100.00
11936;BME280;6027;48.576;9.180;2023-04-26T04:30:29;96899.13;;;4.06;100.00
11936;BME280;6027;48.576;9.180;2023-04-26T04:32:55;96896.94;;;4.11;100.00
11936;BME280;6027;48.576;9.180;2023-04-26T04:35:23;96897.63;;;4.13;100.00
11936;BME280;6027;48.576;9.180;2023-04-26T04:37:55;96908.78;;;4.06;100.00
11936;BME280;6027;48.576;9.180;2023-04-26T04:40:21;96913.13;;;3.78;100.00
11936;BME280;6027;48.576;9.180;2023-04-26T04:42:47;96918.22;;;3.79;100.00
11936;BME280;6027;48.576;9.180;2023-04-26T04:45:13;96906.19;;;3.96;100.00
11936;BME280;6027;48.576;9.180;2023-04-26T04:47:39;96909.06;;;4.12;100.00
11936;BME280;6027;48.576;9.180;2023-04-26T04:50:05;96901.03;;;4.24;100.00
11936;BME280;6027;48.576;9.180;2023-04-26T04:52:31;96902.03;;;4.23;100.00
11936;BME280;6027;48.576;9.180;2023-04-26T04:54:58;96912.09;;;4.18;100.00
11936;BME280;6027;48.576;9.180;2023-04-26T04:57:23;96908.50;;;4.19;100.00
11936;BME280;6027;48.576;9.180;2023-04-26T04:59:48;96908.88;;;4.24;100.00
11936;BME280;6027;48.576;9.180;2023-04-26T05:02:14;96909.06;;;4.22;100.00
11936;BME280;6027;48.576;9.180;2023-04-26T05:04:39;96913.72;;;4.28;100.00
11936;BME280;6027;48.576;9.180;2023-04-26T05:07:05;96924.47;;;4.35;100.00
11936;BME280;6027;48.576;9.180;2023-04-26T05:09:30;96919.50;;;4.32;100.00
11936;BME280;6027;48.576;9.180;2023-04-26T05:11:56;96926.22;;;4.44;100.00
11936;BME280;6027;48.576;9.180;2023-04-26T05:14:21;96919.03;;;4.46;100.00
11936;BME280;6027;48.576;9.180;2023-04-26T05:16:47;96938.06;;;4.48;100.00
11936;BME280;6027;48.576;9.180;2023-04-26T05:19:12;96929.53;;;4.46;100.00
11936;BME280;6027;48.576;9.180;2023-04-26T05:21:38;96927.16;;;4.53;100.00
11936;BME280;6027;48.576;9.180;2023-04-26T05:24:03;96932.94;;;4.56;100.00
11936;BME280;6027;48.576;9.180;2023-04-26T05:26:29;96924.81;;;4.59;100.00
11936;BME280;6027;48.576;9.180;2023-04-26T05:28:54;96939.03;;;4.47;100.00
11936;BME280;6027;48.576;9.180;2023-04-26T05:31:20;96938.75;;;4.50;100.00
11936;BME280;6027;48.576;9.180;2023-04-26T05:33:46;96942.47;;;4.47;100.00
11936;BME280;6027;48.576;9.180;2023-04-26T05:36:11;96948.25;;;4.61;100.00
11936;BME280;6027;48.576;9.180;2023-04-26T05:38:37;96947.94;;;4.73;100.00
11936;BME280;6027;48.576;9.180;2023-04-26T05:41:02;96949.88;;;4.71;100.00
11936;BME280;6027;48.576;9.180;2023-04-26T05:43:28;96950.56;;;4.73;100.00
11936;BME280;6027;48.576;9.180;2023-04-26T05:45:54;96955.16;;;4.62;100.00
11936;BME280;6027;48.576;9.180;2023-04-26T05:48:21;96954.16;;;4.63;100.00
11936;BME280;6027;48.576;9.180;2023-04-26T05:50:47;96958.44;;;4.64;100.00
11936;BME280;6027;48.576;9.180;2023-04-26T05:53:13;96963.53;;;4.75;100.00
11936;BME280;6027;48.576;9.180;2023-04-26T05:55:40;96970.41;;;4.76;100.00
11936;BME280;6027;48.576;9.180;2023-04-26T05:58:05;96962.16;;;4.71;100.00
11936;BME280;6027;48.576;9.180;2023-04-26T06:00:30;96960.28;;;4.91;100.00
11936;BME280;6027;48.576;9.180;2023-04-26T06:02:57;96958.75;;;4.98;100.00
11936;BME280;6027;48.576;9.180;2023-04-26T06:05:22;96958.28;;;5.02;100.00
11936;BME280;6027;48.576;9.180;2023-04-26T06:07:48;96964.34;;;5.03;100.00
11936;BME280;6027;48.576;9.180;2023-04-26T06:10:14;96966.34;;;4.91;100.00
11936;BME280;6027;48.576;9.180;2023-04-26T06:12:39;96969.59;;;5.03;100.00
11936;BME280;6027;48.576;9.180;2023-04-26T06:15:05;96973.31;;;5.10;100.00
11936;BME280;6027;48.576;9.180;2023-04-26T06:17:30;96969.22;;;4.98;100.00
11936;BME280;6027;48.576;9.180;2023-04-26T06:19:56;96980.59;;;5.16;100.00
11936;BME280;6027;48.576;9.180;2023-04-26T06:22:21;96970.81;;;5.08;100.00
11936;BME280;6027;48.576;9.180;2023-04-26T06:24:47;96975.50;;;5.14;100.00
11936;BME280;6027;48.576;9.180;2023-04-26T06:27:12;96976.94;;;5.27;100.00
11936;BME280;6027;48.576;9.180;2023-04-26T06:29:37;96973.28;;;5.19;100.00
11936;BME280;6027;48.576;9.180;2023-04-26T06:32:03;96984.13;;;5.25;100.00
11936;BME280;6027;48.576;9.180;2023-04-26T06:34:28;96983.13;;;5.35;100.00
11936;BME280;6027;48.576;9.180;2023-04-26T06:36:54;96985.16;;;5.41;100.00
11936;BME280;6027;48.576;9.180;2023-04-26T06:39:20;96989.66;;;5.49;100.00
11936;BME280;6027;48.576;9.180;2023-04-26T06:41:45;96987.66;;;5.61;100.00
11936;BME280;6027;48.576;9.180;2023-04-26T06:44:10;96982.78;;;5.66;100.00
11936;BME280;6027;48.576;9.180;2023-04-26T06:46:36;96989.13;;;5.45;100.00
11936;BME280;6027;48.576;9.180;2023-04-26T06:49:02;96986.78;;;5.42;100.00
11936;BME280;6027;48.576;9.180;2023-04-26T06:51:27;96985.38;;;5.48;100.00
11936;BME280;6027;48.576;9.180;2023-04-26T06:53:54;96997.41;;;5.68;100.00
11936;BME280;6027;48.576;9.180;2023-04-26T06:56:21;96985.13;;;5.86;100.00
11936;BME280;6027;48.576;9.180;2023-04-26T06:59:01;96984.28;;;5.86;100.00
11936;BME280;6027;48.576;9.180;2023-04-26T07:01:28;96987.97;;;5.75;100.00
11936;BME280;6027;48.576;9.180;2023-04-26T07:03:56;96977.81;;;5.90;100.00
11936;BME280;6027;48.576;9.180;2023-04-26T07:06:25;96972.00;;;6.04;100.00
11936;BME280;6027;48.576;9.180;2023-04-26T07:08:52;96972.81;;;6.22;100.00
11936;BME280;6027;48.576;9.180;2023-04-26T07:11:18;96965.28;;;6.28;100.00
11936;BME280;6027;48.576;9.180;2023-04-26T07:13:43;96964.31;;;6.29;100.00
11936;BME280;6027;48.576;9.180;2023-04-26T07:16:09;96960.28;;;6.42;100.00
11936;BME280;6027;48.576;9.180;2023-04-26T07:18:34;96967.47;;;6.58;100.00
11936;BME280;6027;48.576;9.180;2023-04-26T07:20:59;96964.38;;;6.63;100.00
11936;BME280;6027;48.576;9.180;2023-04-26T07:23:25;96958.28;;;6.62;100.00
11936;BME280;6027;48.576;9.180;2023-04-26T07:25:50;96958.75;;;6.57;100.00
11936;BME280;6027;48.576;9.180;2023-04-26T07:28:16;96963.91;;;6.67;100.00
11936;BME280;6027;48.576;9.180;2023-04-26T07:30:42;96969.53;;;6.72;100.00
11936;BME280;6027;48.576;9.180;2023-04-26T07:33:07;96958.19;;;6.72;100.00
11936;BME280;6027;48.576;9.180;2023-04-26T07:35:33;96957.41;;;6.79;100.00
11936;BME280;6027;48.576;9.180;2023-04-26T07:38:00;96957.81;;;6.92;100.00
11936;BME280;6027;48.576;9.180;2023-04-26T07:40:26;96952.88;;;6.98;100.00
11936;BME280;6027;48.576;9.180;2023-04-26T07:42:53;96953.25;;;7.03;100.00
11936;BME280;6027;48.576;9.180;2023-04-26T07:45:18;96951.38;;;6.95;100.00
11936;BME280;6027;48.576;9.180;2023-04-26T07:47:44;96946.09;;;6.87;100.00
11936;BME280;6027;48.576;9.180;2023-04-26T07:50:10;96946.78;;;6.97;100.00
11936;BME280;6027;48.576;9.180;2023-04-26T07:52:36;96950.91;;;7.00;100.00
11936;BME280;6027;48.576;9.180;2023-04-26T07:55:01;96946.22;;;7.19;100.00
11936;BME280;6027;48.576;9.180;2023-04-26T07:57:27;96953.13;;;7.20;100.00
11936;BME280;6027;48.576;9.180;2023-04-26T07:59:52;96954.69;;;7.31;100.00
11936;BME280;6027;48.576;9.180;2023-04-26T08:02:17;96956.28;;;7.32;94.58
11936;BME280;6027;48.576;9.180;2023-04-26T08:04:52;96953.38;;;7.51;99.50
11936;BME280;6027;48.576;9.180;2023-04-26T08:07:19;96958.69;;;7.59;87.71
11936;BME280;6027;48.576;9.180;2023-04-26T08:09:44;96945.34;;;7.61;87.34
11936;BME280;6027;48.576;9.180;2023-04-26T08:12:10;96950.81;;;7.68;85.54
11936;BME280;6027;48.576;9.180;2023-04-26T08:14:36;96950.31;;;7.64;80.92
11936;BME280;6027;48.576;9.180;2023-04-26T08:17:03;96950.47;;;7.62;82.43
11936;BME280;6027;48.576;9.180;2023-04-26T08:19:29;96952.94;;;7.72;82.67
11936;BME280;6027;48.576;9.180;2023-04-26T08:21:57;96960.06;;;7.88;82.30
11936;BME280;6027;48.576;9.180;2023-04-26T08:24:23;96959.38;;;7.94;81.30
11936;BME280;6027;48.576;9.180;2023-04-26T08:26:48;96959.22;;;7.95;77.92
11936;BME280;6027;48.576;9.180;2023-04-26T08:29:14;96960.88;;;7.96;73.43
11936;BME280;6027;48.576;9.180;2023-04-26T08:31:40;96965.00;;;8.15;74.83
11936;BME280;6027;48.576;9.180;2023-04-26T08:34:06;96968.31;;;8.17;74.77
11936;BME280;6027;48.576;9.180;2023-04-26T08:36:36;96969.47;;;8.15;77.76
11936;BME280;6027;48.576;9.180;2023-04-26T08:39:01;96960.41;;;8.34;74.16
11936;BME280;6027;48.576;9.180;2023-04-26T08:41:28;96955.31;;;8.32;71.10
11936;BME280;6027;48.576;9.180;2023-04-26T08:43:55;96957.78;;;8.34;74.83
11936;BME280;6027;48.576;9.180;2023-04-26T08:46:24;96970.00;;;8.43;74.84
11936;BME280;6027;48.576;9.180;2023-04-26T08:49:02;96968.63;;;8.47;70.57
11936;BME280;6027;48.576;9.180;2023-04-26T08:51:31;96965.88;;;8.40;76.26
11936;BME280;6027;48.576;9.180;2023-04-26T08:53:58;96967.16;;;8.60;86.90
11936;BME280;6027;48.576;9.180;2023-04-26T08:56:24;96974.72;;;8.80;82.20
11936;BME280;6027;48.576;9.180;2023-04-26T08:58:52;96968.28;;;8.82;72.11
11936;BME280;6027;48.576;9.180;2023-04-26T09:01:18;96973.84;;;8.95;73.09
11936;BME280;6027;48.576;9.180;2023-04-26T09:03:45;96975.44;;;9.05;67.41
11936;BME280;6027;48.576;9.180;2023-04-26T09:06:12;96970.72;;;8.92;64.78
11936;BME280;6027;48.576;9.180;2023-04-26T09:08:39;96972.69;;;8.98;64.76
11936;BME280;6027;48.576;9.180;2023-04-26T09:11:05;96964.25;;;9.03;70.05
11936;BME280;6027;48.576;9.180;2023-04-26T09:13:31;96968.16;;;9.15;69.67
11936;BME280;6027;48.576;9.180;2023-04-26T09:15:57;96953.00;;;9.09;66.03
11936;BME280;6027;48.576;9.180;2023-04-26T09:18:22;96963.78;;;8.91;64.25
11936;BME280;6027;48.576;9.180;2023-04-26T09:21:07;96959.59;;;9.05;69.68
11936;BME280;6027;48.576;9.180;2023-04-26T09:23:33;96952.81;;;9.10;68.62
11936;BME280;6027;48.576;9.180;2023-04-26T09:26:18;96957.78;;;9.05;67.75
11936;BME280;6027;48.576;9.180;2023-04-26T09:28:45;96952.25;;;9.31;72.47
11936;BME280;6027;48.576;9.180;2023-04-26T09:31:34;96951.38;;;9.39;65.21
11936;BME280;6027;48.576;9.180;2023-04-26T09:34:00;96945.78;;;9.33;67.47
11936;BME280;6027;48.576;9.180;2023-04-26T09:36:25;96938.22;;;9.61;70.28
11936;BME280;6027;48.576;9.180;2023-04-26T09:38:51;96941.72;;;9.54;68.35
11936;BME280;6027;48.576;9.180;2023-04-26T09:41:17;96937.50;;;9.67;70.83
11936;BME280;6027;48.576;9.180;2023-04-26T09:43:42;96930.69;;;9.73;68.74
11936;BME280;6027;48.576;9.180;2023-04-26T09:46:07;96932.66;;;9.79;64.95
11936;BME280;6027;48.576;9.180;2023-04-26T09:48:33;96934.34;;;9.95;67.08
11936;BME280;6027;48.576;9.180;2023-04-26T09:53:30;96922.53;;;10.28;68.32
11936;BME280;6027;48.576;9.180;2023-04-26T09:58:31;96923.94;;;10.39;68.20
11936;BME280;6027;48.576;9.180;2023-04-26T10:00:57;96930.31;;;10.45;66.63
11936;BME280;6027;48.576;9.180;2023-04-26T10:03:23;96928.25;;;10.55;62.65
11936;BME280;6027;48.576;9.180;2023-04-26T10:05:49;96928.91;;;10.57;60.28
11936;BME280;6027;48.576;9.180;2023-04-26T10:08:15;96925.78;;;10.53;59.65
11936;BME280;6027;48.576;9.180;2023-04-26T10:10:41;96936.06;;;10.33;60.96
11936;BME280;6027;48.576;9.180;2023-04-26T10:13:08;96929.34;;;10.23;61.15
11936;BME280;6027;48.576;9.180;2023-04-26T10:15:35;96923.47;;;10.13;61.12
11936;BME280;6027;48.576;9.180;2023-04-26T10:18:01;96922.13;;;10.17;59.55
11936;BME280;6027;48.576;9.180;2023-04-26T10:20:27;96924.25;;;9.98;63.42
11936;BME280;6027;48.576;9.180;2023-04-26T10:22:56;96924.94;;;10.15;62.86
11936;BME280;6027;48.576;9.180;2023-04-26T10:25:39;96913.47;;;10.23;63.38
11936;BME280;6027;48.576;9.180;2023-04-26T10:28:06;96919.75;;;10.22;63.52
11936;BME280;6027;48.576;9.180;2023-04-26T10:30:32;96909.59;;;10.11;61.00
11936;BME280;6027;48.576;9.180;2023-04-26T10:35:23;96911.41;;;10.33;60.70
11936;BME280;6027;48.576;9.180;2023-04-26T10:40:29;96913.06;;;10.34;60.68
11936;BME280;6027;48.576;9.180;2023-04-26T10:45:32;96900.84;;;10.10;63.05
11936;BME280;6027;48.576;9.180;2023-04-26T10:48:28;96910.06;;;10.14;63.84
11936;BME280;6027;48.576;9.180;2023-04-26T10:56:09;96901.53;;;10.27;63.44
11936;BME280;6027;48.576;9.180;2023-04-26T10:58:39;96900.84;;;10.48;65.13
11936;BME280;6027;48.576;9.180;2023-04-26T11:01:07;96896.75;;;10.75;61.84
11936;BME280;6027;48.576;9.180;2023-04-26T11:03:33;96893.28;;;10.74;57.33
11936;BME280;6027;48.576;9.180;2023-04-26T11:05:59;96891.00;;;10.56;60.43
11936;BME280;6027;48.576;9.180;2023-04-26T11:08:29;96893.72;;;10.63;59.33
11936;BME280;6027;48.576;9.180;2023-04-26T11:13:46;96881.53;;;10.77;59.36
11936;BME280;6027;48.576;9.180;2023-04-26T11:16:13;96886.59;;;10.78;56.48
11936;BME280;6027;48.576;9.180;2023-04-26T11:18:43;96885.34;;;10.89;54.89
11936;BME280;6027;48.576;9.180;2023-04-26T11:21:10;96881.31;;;10.78;54.49
11936;BME280;6027;48.576;9.180;2023-04-26T11:23:37;96881.94;;;10.80;54.63
11936;BME280;6027;48.576;9.180;2023-04-26T11:26:07;96870.00;;;10.69;55.36
11936;BME280;6027;48.576;9.180;2023-04-26T11:28:35;96878.22;;;10.75;60.20
11936;BME280;6027;48.576;9.180;2023-04-26T11:31:05;96872.91;;;10.89;54.71
11936;BME280;6027;48.576;9.180;2023-04-26T11:33:31;96873.75;;;10.90;59.33
11936;BME280;6027;48.576;9.180;2023-04-26T11:35:58;96865.81;;;10.75;57.35
11936;BME280;6027;48.576;9.180;2023-04-26T11:38:26;96862.16;;;10.76;59.17
11936;BME280;6027;48.576;9.180;2023-04-26T11:40:55;96864.06;;;10.82;57.39
11936;BME280;6027;48.576;9.180;2023-04-26T11:43:20;96851.94;;;10.73;56.14
11936;BME280;6027;48.576;9.180;2023-04-26T11:45:46;96847.19;;;10.68;57.06
11936;BME280;6027;48.576;9.180;2023-04-26T11:48:11;96841.97;;;10.75;55.05
11936;BME280;6027;48.576;9.180;2023-04-26T11:50:38;96844.22;;;10.78;55.84
11936;BME280;6027;48.576;9.180;2023-04-26T11:53:08;96844.69;;;10.82;55.77
11936;BME280;6027;48.576;9.180;2023-04-26T11:55:34;96841.69;;;10.85;55.55
11936;BME280;6027;48.576;9.180;2023-04-26T11:58:00;96842.47;;;11.00;58.31
11936;BME280;6027;48.576;9.180;2023-04-26T12:00:27;96838.69;;;11.24;60.00
11936;BME280;6027;48.576;9.180;2023-04-26T12:02:53;96830.94;;;11.43;56.20
11936;BME280;6027;48.576;9.180;2023-04-26T12:05:22;96830.44;;;11.55;55.22
11936;BME280;6027;48.576;9.180;2023-04-26T12:07:52;96821.09;;;11.59;55.74
11936;BME280;6027;48.576;9.180;2023-04-26T12:10:26;96822.06;;;11.72;54.79
11936;BME280;6027;48.576;9.180;2023-04-26T12:12:53;96824.31;;;11.75;60.29
11936;BME280;6027;48.576;9.180;2023-04-26T12:15:28;96817.19;;;11.76;55.61
11936;BME280;6027;48.576;9.180;2023-04-26T12:18:07;96817.00;;;11.77;57.58
11936;BME280;6027;48.576;9.180;2023-04-26T12:20:41;96829.41;;;11.56;57.01
11936;BME280;6027;48.576;9.180;2023-04-26T12:23:08;96829.63;;;11.33;55.97
11936;BME280;6027;48.576;9.180;2023-04-26T12:25:36;96832.41;;;11.46;58.42
11936;BME280;6027;48.576;9.180;2023-04-26T12:28:11;96837.00;;;11.59;55.35
11936;BME280;6027;48.576;9.180;2023-04-26T12:30:38;96829.78;;;11.89;55.29
11936;BME280;6027;48.576;9.180;2023-04-26T12:33:04;96825.13;;;11.97;54.51
11936;BME280;6027;48.576;9.180;2023-04-26T12:35:31;96818.38;;;11.95;51.73
11936;BME280;6027;48.576;9.180;2023-04-26T12:37:56;96814.97;;;12.01;50.85
11936;BME280;6027;48.576;9.180;2023-04-26T12:40:25;96816.97;;;11.99;51.16
11936;BME280;6027;48.576;9.180;2023-04-26T12:42:51;96815.50;;;11.90;54.18
11936;BME280;6027;48.576;9.180;2023-04-26T12:45:17;96810.56;;;11.87;51.43
11936;BME280;6027;48.576;9.180;2023-04-26T12:47:44;96817.06;;;11.84;53.85
11936;BME280;6027;48.576;9.180;2023-04-26T12:50:11;96806.75;;;11.74;53.29
11936;BME280;6027;48.576;9.180;2023-04-26T12:52:41;96807.91;;;11.87;53.45
11936;BME280;6027;48.576;9.180;2023-04-26T12:55:08;96817.00;;;11.77;52.33
11936;BME280;6027;48.576;9.180;2023-04-26T12:57:38;96803.50;;;11.72;51.97
11936;BME280;6027;48.576;9.180;2023-04-26T13:00:06;96808.28;;;11.84;53.43
11936;BME280;6027;48.576;9.180;2023-04-26T13:02:32;96805.09;;;11.95;52.37
11936;BME280;6027;48.576;9.180;2023-04-26T13:04:59;96802.13;;;12.04;52.02
11936;BME280;6027;48.576;9.180;2023-04-26T13:07:26;96788.13;;;12.17;55.03
11936;BME280;6027;48.576;9.180;2023-04-26T13:09:52;96791.41;;;12.19;53.97
11936;BME280;6027;48.576;9.180;2023-04-26T13:12:17;96793.81;;;12.42;51.88
11936;BME280;6027;48.576;9.180;2023-04-26T13:14:43;96784.88;;;12.50;50.46
11936;BME280;6027;48.576;9.180;2023-04-26T13:17:10;96801.97;;;12.40;55.24
11936;BME280;6027;48.576;9.180;2023-04-26T13:19:35;96801.13;;;12.40;53.82
11936;BME280;6027;48.576;9.180;2023-04-26T13:22:04;96798.97;;;12.57;50.25
11936;BME280;6027;48.576;9.180;2023-04-26T13:24:33;96790.63;;;12.60;48.97
11936;BME280;6027;48.576;9.180;2023-04-26T13:26:58;96792.53;;;12.72;53.67
11936;BME280;6027;48.576;9.180;2023-04-26T13:29:24;96795.78;;;12.68;49.10
11936;BME280;6027;48.576;9.180;2023-04-26T13:31:50;96798.66;;;12.73;48.83